sensor_id;sensor_type;location;lat;lon;timestamp;pressure;altitude;pressure_sealevel;temperature;humidity
81802;BME280;71199;52.490;5.448;2023-07-28T00:00:31;100519.00;;;16.99;94.19
81802;BME280;71199;52.490;5.448;2023-07-28T00:02:56;100530.25;;;17.04;94.02
81802;BME280;71199;52.490;5.448;2023-07-28T00:05:21;100531.72;;;17.07;94.11
81802;BME280;71199;52.490;5.448;2023-07-28T00:07:47;100531.13;;;17.05;94.08
81802;BME280;71199;52.490;5.448;2023-07-28T00:10:12;100531.72;;;17.07;93.96
81802;BME280;71199;52.490;5.448;2023-07-28T00:12:37;100528.09;;;17.06;93.84
81802;BME280;71199;52.490;5.448;2023-07-28T00:15:03;100521.88;;;17.11;93.82
81802;BME280;71199;52.490;5.448;2023-07-28T00:17:29;100530.19;;;17.11;93.99
81802;BME280;71199;52.490;5.448;2023-07-28T00:19:54;100529.16;;;17.12;94.17
81802;BME280;71199;52.490;5.448;2023-07-28T00:22:19;100520.63;;;17.07;94.06
81802;BME280;71199;52.490;5.448;2023-07-28T00:24:45;100527.44;;;17.11;94.01
81802;BME280;71199;52.490;5.448;2023-07-28T00:27:10;100516.38;;;17.04;94.00
81802;BME280;71199;52.490;5.448;2023-07-28T00:29:38;100519.22;;;16.98;94.22
81802;BME280;71199;52.490;5.448;2023-07-28T00:32:03;100516.47;;;16.91;94.25
81802;BME280;71199;52.490;5.448;2023-07-28T00:34:28;100518.44;;;16.84;94.46
81802;BME280;71199;52.490;5.448;2023-07-28T00:36:54;100524.84;;;16.84;94.82
81802;BME280;71199;52.490;5.448;2023-07-28T00:39:19;100517.59;;;16.83;94.57
81802;BME280;71199;52.490;5.448;2023-07-28T00:41:45;100515.91;;;16.82;94.78
81802;BME280;71199;52.490;5.448;2023-07-28T00:44:10;100520.38;;;16.83;95.04
81802;BME280;71199;52.490;5.448;2023-07-28T00:46:36;100517.53;;;16.90;94.80
81802;BME280;71199;52.490;5.448;2023-07-28T00:49:01;100521.81;;;16.92;94.70
81802;BME280;71199;52.490;5.448;2023-07-28T00:51:28;100525.38;;;17.00;94.37
81802;BME280;71199;52.490;5.448;2023-07-28T00:53:54;100529.88;;;17.01;94.59
81802;BME280;71199;52.490;5.448;2023-07-28T00:56:20;100520.94;;;16.99;94.55
81802;BME280;71199;52.490;5.448;2023-07-28T00:58:46;100520.25;;;17.03;94.44
81802;BME280;71199;52.490;5.448;2023-07-28T01:01:12;100516.38;;;17.04;94.27
81802;BME280;71199;52.490;5.448;2023-07-28T01:03:37;100517.25;;;17.05;94.32
81802;BME280;71199;52.490;5.448;2023-07-28T01:06:23;100530.88;;;17.06;94.14
81802;BME280;71199;52.490;5.448;2023-07-28T01:09:05;100532.81;;;17.06;94.21
81802;BME280;71199;52.490;5.448;2023-07-28T01:11:31;100533.91;;;17.05;94.59
81802;BME280;71199;52.490;5.448;2023-07-28T01:13:57;100537.06;;;17.08;94.26
81802;BME280;71199;52.490;5.448;2023-07-28T01:16:22;100522.97;;;17.10;94.03
81802;BME280;71199;52.490;5.448;2023-07-28T01:18:48;100531.72;;;17.14;93.81
81802;BME280;71199;52.490;5.448;2023-07-28T01:21:21;100532.56;;;17.14;94.13
81802;BME280;71199;52.490;5.448;2023-07-28T01:24:05;100531.72;;;17.14;93.98
81802;BME280;71199;52.490;5.448;2023-07-28T01:26:36;100532.75;;;17.12;93.89
81802;BME280;71199;52.490;5.448;2023-07-28T01:29:03;100531.91;;;17.12;94.14
81802;BME280;71199;52.490;5.448;2023-07-28T01:31:29;100534.47;;;17.14;94.29
81802;BME280;71199;52.490;5.448;2023-07-28T01:33:55;100538.72;;;17.16;94.17
81802;BME280;71199;52.490;5.448;2023-07-28T01:36:20;100543.44;;;17.16;94.27
81802;BME280;71199;52.490;5.448;2023-07-28T01:38:46;100538.31;;;17.12;94.29
81802;BME280;71199;52.490;5.448;2023-07-28T01:41:11;100546.44;;;17.14;94.37
81802;BME280;71199;52.490;5.448;2023-07-28T01:43:37;100535.94;;;17.16;94.41
81802;BME280;71199;52.490;5.448;2023-07-28T01:46:02;100535.72;;;17.18;94.05
81802;BME280;71199;52.490;5.448;2023-07-28T01:48:27;100541.91;;;17.20;94.01
81802;BME280;71199;52.490;5.448;2023-07-28T01:50:53;100539.34;;;17.18;94.02
81802;BME280;71199;52.490;5.448;2023-07-28T01:53:18;100544.44;;;17.21;93.99
81802;BME280;71199;52.490;5.448;2023-07-28T01:55:44;100549.16;;;17.21;94.15
81802;BME280;71199;52.490;5.448;2023-07-28T01:58:09;100544.22;;;17.23;93.99
81802;BME280;71199;52.490;5.448;2023-07-28T02:00:35;100543.38;;;17.22;93.97
81802;BME280;71199;52.490;5.448;2023-07-28T02:03:00;100536.75;;;17.23;93.95
81802;BME280;71199;52.490;5.448;2023-07-28T02:05:28;100527.78;;;17.21;93.93
81802;BME280;71199;52.490;5.448;2023-07-28T02:07:54;100530.56;;;17.21;94.10
81802;BME280;71199;52.490;5.448;2023-07-28T02:10:19;100534.44;;;17.20;93.82
81802;BME280;71199;52.490;5.448;2023-07-28T02:12:45;100531.19;;;17.23;94.10
81802;BME280;71199;52.490;5.448;2023-07-28T02:15:13;100532.06;;;17.24;93.98
81802;BME280;71199;52.490;5.448;2023-07-28T02:17:39;100529.50;;;17.22;94.06
81802;BME280;71199;52.490;5.448;2023-07-28T02:20:05;100530.81;;;17.20;94.11
81802;BME280;71199;52.490;5.448;2023-07-28T02:22:30;100540.88;;;17.14;94.09
81802;BME280;71199;52.490;5.448;2023-07-28T02:24:56;100541.94;;;17.13;94.17
81802;BME280;71199;52.490;5.448;2023-07-28T02:27:21;100536.63;;;17.11;94.33
81802;BME280;71199;52.490;5.448;2023-07-28T02:29:46;100539.63;;;17.10;94.13
81802;BME280;71199;52.490;5.448;2023-07-28T02:32:13;100540.25;;;17.12;94.38
81802;BME280;71199;52.490;5.448;2023-07-28T02:34:38;100538.31;;;17.12;94.37
81802;BME280;71199;52.490;5.448;2023-07-28T02:37:03;100535.53;;;17.12;94.47
81802;BME280;71199;52.490;5.448;2023-07-28T02:39:29;100550.25;;;17.13;94.46
81802;BME280;71199;52.490;5.448;2023-07-28T02:41:54;100541.09;;;17.12;94.34
81802;BME280;71199;52.490;5.448;2023-07-28T02:44:20;100543.66;;;17.14;94.27
81802;BME280;71199;52.490;5.448;2023-07-28T02:46:45;100538.31;;;17.12;94.52
81802;BME280;71199;52.490;5.448;2023-07-28T02:49:10;100546.22;;;17.16;94.38
81802;BME280;71199;52.490;5.448;2023-07-28T02:51:36;100538.16;;;17.07;94.48
81802;BME280;71199;52.490;5.448;2023-07-28T02:54:02;100537.28;;;17.07;94.71
81802;BME280;71199;52.490;5.448;2023-07-28T02:56:28;100539.06;;;17.01;94.77
81802;BME280;71199;52.490;5.448;2023-07-28T02:58:54;100544.41;;;16.96;94.92
81802;BME280;71199;52.490;5.448;2023-07-28T03:01:19;100546.34;;;16.96;95.02
81802;BME280;71199;52.490;5.448;2023-07-28T03:03:44;100544.88;;;16.93;95.25
81802;BME280;71199;52.490;5.448;2023-07-28T03:06:10;100552.09;;;16.94;95.37
81802;BME280;71199;52.490;5.448;2023-07-28T03:08:36;100544.25;;;16.91;95.15
81802;BME280;71199;52.490;5.448;2023-07-28T03:11:01;100546.81;;;16.86;95.13
81802;BME280;71199;52.490;5.448;2023-07-28T03:13:29;100551.31;;;16.87;95.30
81802;BME280;71199;52.490;5.448;2023-07-28T03:15:55;100546.41;;;16.76;95.14
81802;BME280;71199;52.490;5.448;2023-07-28T03:18:20;100558.38;;;16.69;95.58
81802;BME280;71199;52.490;5.448;2023-07-28T03:20:46;100546.66;;;16.67;95.64
81802;BME280;71199;52.490;5.448;2023-07-28T03:23:12;100543.25;;;16.65;95.92
81802;BME280;71199;52.490;5.448;2023-07-28T03:25:38;100558.84;;;16.66;95.90
81802;BME280;71199;52.490;5.448;2023-07-28T03:28:03;100552.47;;;16.66;96.19
81802;BME280;71199;52.490;5.448;2023-07-28T03:30:28;100552.66;;;16.64;96.22
81802;BME280;71199;52.490;5.448;2023-07-28T03:32:54;100558.00;;;16.66;96.35
81802;BME280;71199;52.490;5.448;2023-07-28T03:35:19;100561.63;;;16.66;96.48
81802;BME280;71199;52.490;5.448;2023-07-28T03:37:45;100547.53;;;16.61;96.44
81802;BME280;71199;52.490;5.448;2023-07-28T03:40:10;100560.78;;;16.59;96.31
81802;BME280;71199;52.490;5.448;2023-07-28T03:42:35;100569.97;;;16.60;96.40
81802;BME280;71199;52.490;5.448;2023-07-28T03:45:01;100574.69;;;16.52;96.47
81802;BME280;71199;52.490;5.448;2023-07-28T03:47:26;100575.16;;;16.49;96.61
81802;BME280;71199;52.490;5.448;2023-07-28T03:49:52;100587.09;;;16.50;96.73
81802;BME280;71199;52.490;5.448;2023-07-28T03:52:17;100587.50;;;16.54;96.75
81802;BME280;71199;52.490;5.448;2023-07-28T03:54:42;100590.28;;;16.54;96.76
81802;BME280;71199;52.490;5.448;2023-07-28T03:57:09;100586.63;;;16.53;96.89
81802;BME280;71199;52.490;5.448;2023-07-28T03:59:35;100597.31;;;16.56;96.86
81802;BME280;71199;52.490;5.448;2023-07-28T04:02:00;100597.09;;;16.58;96.93
81802;BME280;71199;52.490;5.448;2023-07-28T04:04:26;100596.00;;;16.59;96.77
81802;BME280;71199;52.490;5.448;2023-07-28T04:06:51;100600.25;;;16.61;96.73
81802;BME280;71199;52.490;5.448;2023-07-28T04:09:18;100601.13;;;16.62;96.57
81802;BME280;71199;52.490;5.448;2023-07-28T04:11:44;100603.44;;;16.65;96.63
81802;BME280;71199;52.490;5.448;2023-07-28T04:14:09;100588.78;;;16.58;96.74
81802;BME280;71199;52.490;5.448;2023-07-28T04:16:34;100596.22;;;16.64;96.64
81802;BME280;71199;52.490;5.448;2023-07-28T04:19:00;100596.84;;;16.66;96.62
81802;BME280;71199;52.490;5.448;2023-07-28T04:21:25;100594.06;;;16.66;96.56
81802;BME280;71199;52.490;5.448;2023-07-28T04:23:51;100608.97;;;16.71;96.70
81802;BME280;71199;52.490;5.448;2023-07-28T04:26:17;100595.50;;;16.75;96.46
81802;BME280;71199;52.490;5.448;2023-07-28T04:28:43;100600.63;;;16.78;96.56
81802;BME280;71199;52.490;5.448;2023-07-28T04:31:08;100610.00;;;16.84;96.38
81802;BME280;71199;52.490;5.448;2023-07-28T04:33:34;100611.72;;;16.85;96.36
81802;BME280;71199;52.490;5.448;2023-07-28T04:36:02;100615.34;;;16.85;96.46
81802;BME280;71199;52.490;5.448;2023-07-28T04:38:27;100612.53;;;16.92;96.24
81802;BME280;71199;52.490;5.448;2023-07-28T04:40:52;100619.81;;;16.93;96.58
81802;BME280;71199;52.490;5.448;2023-07-28T04:43:18;100605.47;;;16.96;96.31
81802;BME280;71199;52.490;5.448;2023-07-28T04:45:44;100607.59;;;17.01;96.28
81802;BME280;71199;52.490;5.448;2023-07-28T04:48:10;100615.22;;;17.12;95.93
81802;BME280;71199;52.490;5.448;2023-07-28T04:50:35;100606.97;;;17.30;95.51
81802;BME280;71199;52.490;5.448;2023-07-28T04:53:01;100614.81;;;17.40;95.02
81802;BME280;71199;52.490;5.448;2023-07-28T04:55:27;100616.09;;;17.44;94.58
81802;BME280;71199;52.490;5.448;2023-07-28T04:57:53;100610.28;;;17.46;94.61
81802;BME280;71199;52.490;5.448;2023-07-28T05:00:18;100619.25;;;17.48;94.20
81802;BME280;71199;52.490;5.448;2023-07-28T05:02:44;100608.75;;;17.50;94.05
81802;BME280;71199;52.490;5.448;2023-07-28T05:05:09;100607.47;;;17.52;93.78
81802;BME280;71199;52.490;5.448;2023-07-28T05:07:34;100608.94;;;17.55;93.85
81802;BME280;71199;52.490;5.448;2023-07-28T05:10:00;100612.34;;;17.57;93.65
81802;BME280;71199;52.490;5.448;2023-07-28T05:12:25;100621.09;;;17.61;93.60
81802;BME280;71199;52.490;5.448;2023-07-28T05:14:51;100619.56;;;17.65;93.60
81802;BME280;71199;52.490;5.448;2023-07-28T05:17:16;100617.16;;;17.68;93.83
81802;BME280;71199;52.490;5.448;2023-07-28T05:19:41;100612.84;;;17.72;93.37
81802;BME280;71199;52.490;5.448;2023-07-28T05:22:07;100617.34;;;17.73;93.33
81802;BME280;71199;52.490;5.448;2023-07-28T05:24:35;100614.34;;;17.75;93.28
81802;BME280;71199;52.490;5.448;2023-07-28T05:27:01;100609.84;;;17.74;93.27
81802;BME280;71199;52.490;5.448;2023-07-28T05:29:26;100627.34;;;17.81;93.19
81802;BME280;71199;52.490;5.448;2023-07-28T05:31:51;100621.56;;;17.83;93.29
81802;BME280;71199;52.490;5.448;2023-07-28T05:34:17;100616.63;;;17.85;93.04
81802;BME280;71199;52.490;5.448;2023-07-28T05:36:43;100628.38;;;17.87;92.97
81802;BME280;71199;52.490;5.448;2023-07-28T05:39:09;100619.19;;;17.86;92.80
81802;BME280;71199;52.490;5.448;2023-07-28T05:41:34;100629.00;;;17.89;92.89
81802;BME280;71199;52.490;5.448;2023-07-28T05:44:00;100628.34;;;17.94;92.30
81802;BME280;71199;52.490;5.448;2023-07-28T05:46:25;100635.50;;;18.01;92.15
81802;BME280;71199;52.490;5.448;2023-07-28T05:48:50;100626.25;;;18.07;91.90
81802;BME280;71199;52.490;5.448;2023-07-28T05:51:16;100627.91;;;18.15;91.74
81802;BME280;71199;52.490;5.448;2023-07-28T05:53:41;100644.09;;;18.25;91.80
81802;BME280;71199;52.490;5.448;2023-07-28T05:56:07;100646.38;;;18.28;91.38
81802;BME280;71199;52.490;5.448;2023-07-28T05:58:32;100637.81;;;18.29;91.76
81802;BME280;71199;52.490;5.448;2023-07-28T06:00:58;100633.97;;;18.30;91.32
81802;BME280;71199;52.490;5.448;2023-07-28T06:03:23;100638.84;;;18.35;91.58
81802;BME280;71199;52.490;5.448;2023-07-28T06:05:48;100640.94;;;18.40;91.47
81802;BME280;71199;52.490;5.448;2023-07-28T06:08:14;100647.56;;;18.39;90.96
81802;BME280;71199;52.490;5.448;2023-07-28T06:10:39;100643.78;;;18.33;91.21
81802;BME280;71199;52.490;5.448;2023-07-28T06:13:05;100646.09;;;18.36;91.53
81802;BME280;71199;52.490;5.448;2023-07-28T06:15:30;100647.09;;;18.42;91.45
81802;BME280;71199;52.490;5.448;2023-07-28T06:17:56;100651.13;;;18.46;91.14
81802;BME280;71199;52.490;5.448;2023-07-28T06:20:21;100654.47;;;18.55;91.10
81802;BME280;71199;52.490;5.448;2023-07-28T06:22:46;100655.69;;;18.59;90.78
81802;BME280;71199;52.490;5.448;2023-07-28T06:25:12;100655.06;;;18.57;90.49
81802;BME280;71199;52.490;5.448;2023-07-28T06:27:37;100660.88;;;18.55;90.57
81802;BME280;71199;52.490;5.448;2023-07-28T06:30:04;100657.84;;;18.57;90.48
81802;BME280;71199;52.490;5.448;2023-07-28T06:32:30;100664.22;;;18.64;90.30
81802;BME280;71199;52.490;5.448;2023-07-28T06:34:56;100661.75;;;18.74;89.32
81802;BME280;71199;52.490;5.448;2023-07-28T06:37:22;100670.44;;;18.84;89.39
81802;BME280;71199;52.490;5.448;2023-07-28T06:39:48;100667.34;;;18.92;87.72
81802;BME280;71199;52.490;5.448;2023-07-28T06:42:14;100671.97;;;18.99;87.60
81802;BME280;71199;52.490;5.448;2023-07-28T06:44:41;100681.56;;;19.03;87.54
81802;BME280;71199;52.490;5.448;2023-07-28T06:47:07;100684.41;;;18.96;87.32
81802;BME280;71199;52.490;5.448;2023-07-28T06:49:32;100682.81;;;18.88;87.91
81802;BME280;71199;52.490;5.448;2023-07-28T06:51:58;100684.97;;;18.86;88.24
81802;BME280;71199;52.490;5.448;2023-07-28T06:54:23;100692.00;;;18.89;88.52
81802;BME280;71199;52.490;5.448;2023-07-28T06:56:49;100695.63;;;18.89;88.86
81802;BME280;71199;52.490;5.448;2023-07-28T06:59:15;100700.13;;;18.90;88.39
81802;BME280;71199;52.490;5.448;2023-07-28T07:01:40;100711.00;;;18.92;88.25
81802;BME280;71199;52.490;5.448;2023-07-28T07:04:06;100700.88;;;18.98;88.42
81802;BME280;71199;52.490;5.448;2023-07-28T07:06:31;100711.41;;;19.14;87.73
81802;BME280;71199;52.490;5.448;2023-07-28T07:08:57;100709.63;;;19.20;87.47
81802;BME280;71199;52.490;5.448;2023-07-28T07:11:23;100718.38;;;19.23;87.44
81802;BME280;71199;52.490;5.448;2023-07-28T07:13:48;100712.22;;;19.33;86.94
81802;BME280;71199;52.490;5.448;2023-07-28T07:16:15;100722.41;;;19.39;86.55
81802;BME280;71199;52.490;5.448;2023-07-28T07:18:42;100719.81;;;19.44;86.37
81802;BME280;71199;52.490;5.448;2023-07-28T07:21:07;100718.00;;;19.50;86.29
81802;BME280;71199;52.490;5.448;2023-07-28T07:23:33;100728.44;;;19.55;85.23
81802;BME280;71199;52.490;5.448;2023-07-28T07:25:58;100729.69;;;19.59;85.45
81802;BME280;71199;52.490;5.448;2023-07-28T07:28:23;100726.50;;;19.55;85.53
81802;BME280;71199;52.490;5.448;2023-07-28T07:30:49;100729.91;;;19.57;85.68
81802;BME280;71199;52.490;5.448;2023-07-28T07:33:14;100731.00;;;19.56;85.50
81802;BME280;71199;52.490;5.448;2023-07-28T07:35:39;100728.84;;;19.58;85.70
81802;BME280;71199;52.490;5.448;2023-07-28T07:38:05;100733.53;;;19.58;85.43
81802;BME280;71199;52.490;5.448;2023-07-28T07:40:37;100739.31;;;19.44;85.87
81802;BME280;71199;52.490;5.448;2023-07-28T07:43:03;100743.66;;;19.40;85.36
81802;BME280;71199;52.490;5.448;2023-07-28T07:45:32;100744.81;;;19.32;85.58
81802;BME280;71199;52.490;5.448;2023-07-28T07:47:58;100745.66;;;19.33;85.67
81802;BME280;71199;52.490;5.448;2023-07-28T07:50:24;100737.78;;;19.30;85.70
81802;BME280;71199;52.490;5.448;2023-07-28T07:52:50;100750.69;;;19.24;85.65
81802;BME280;71199;52.490;5.448;2023-07-28T07:55:15;100742.44;;;19.18;86.30
81802;BME280;71199;52.490;5.448;2023-07-28T07:57:41;100742.13;;;19.07;86.11
81802;BME280;71199;52.490;5.448;2023-07-28T08:00:08;100756.50;;;19.04;86.57
81802;BME280;71199;52.490;5.448;2023-07-28T08:02:33;100755.50;;;18.99;87.03
81802;BME280;71199;52.490;5.448;2023-07-28T08:04:59;100762.53;;;19.01;86.88
81802;BME280;71199;52.490;5.448;2023-07-28T08:07:25;100761.09;;;18.99;86.82
81802;BME280;71199;52.490;5.448;2023-07-28T08:09:51;100764.00;;;19.04;87.00
81802;BME280;71199;52.490;5.448;2023-07-28T08:12:16;100766.56;;;19.05;86.95
81802;BME280;71199;52.490;5.448;2023-07-28T08:14:42;100768.97;;;19.02;86.64
81802;BME280;71199;52.490;5.448;2023-07-28T08:17:08;100766.25;;;18.95;87.05
81802;BME280;71199;52.490;5.448;2023-07-28T08:19:34;100762.38;;;18.96;86.22
81802;BME280;71199;52.490;5.448;2023-07-28T08:21:59;100765.09;;;19.03;86.28
81802;BME280;71199;52.490;5.448;2023-07-28T08:24:25;100767.09;;;19.14;86.35
81802;BME280;71199;52.490;5.448;2023-07-28T08:26:50;100772.84;;;19.19;85.54
81802;BME280;71199;52.490;5.448;2023-07-28T08:29:15;100781.34;;;19.24;85.49
81802;BME280;71199;52.490;5.448;2023-07-28T08:31:41;100778.31;;;19.26;85.30
81802;BME280;71199;52.490;5.448;2023-07-28T08:34:07;100777.09;;;19.22;85.46
81802;BME280;71199;52.490;5.448;2023-07-28T08:36:33;100788.84;;;19.24;86.01
81802;BME280;71199;52.490;5.448;2023-07-28T08:38:58;100787.09;;;19.29;85.58
81802;BME280;71199;52.490;5.448;2023-07-28T08:41:24;100792.88;;;19.28;85.14
81802;BME280;71199;52.490;5.448;2023-07-28T08:43:50;100791.78;;;19.29;85.25
81802;BME280;71199;52.490;5.448;2023-07-28T08:46:16;100791.94;;;19.34;85.13
81802;BME280;71199;52.490;5.448;2023-07-28T08:48:42;100782.66;;;19.40;84.84
81802;BME280;71199;52.490;5.448;2023-07-28T08:51:09;100788.13;;;19.47;84.64
81802;BME280;71199;52.490;5.448;2023-07-28T08:53:35;100789.03;;;19.59;84.10
81802;BME280;71199;52.490;5.448;2023-07-28T08:56:00;100794.47;;;19.72;83.54
81802;BME280;71199;52.490;5.448;2023-07-28T08:58:26;100800.31;;;19.83;83.67
81802;BME280;71199;52.490;5.448;2023-07-28T09:00:52;100800.88;;;19.91;82.94
81802;BME280;71199;52.490;5.448;2023-07-28T09:03:18;100799.88;;;19.86;83.34
81802;BME280;71199;52.490;5.448;2023-07-28T09:05:44;100802.38;;;19.76;83.43
81802;BME280;71199;52.490;5.448;2023-07-28T09:08:14;100799.59;;;19.76;83.43
81802;BME280;71199;52.490;5.448;2023-07-28T09:10:44;100806.22;;;19.75;83.35
81802;BME280;71199;52.490;5.448;2023-07-28T09:13:11;100806.63;;;19.78;83.71
81802;BME280;71199;52.490;5.448;2023-07-28T09:15:40;100807.09;;;19.75;83.54
81802;BME280;71199;52.490;5.448;2023-07-28T09:18:09;100810.88;;;19.81;82.90
81802;BME280;71199;52.490;5.448;2023-07-28T09:20:39;100810.63;;;19.82;82.82
81802;BME280;71199;52.490;5.448;2023-07-28T09:23:07;100811.03;;;19.86;82.88
81802;BME280;71199;52.490;5.448;2023-07-28T09:25:34;100815.88;;;19.90;82.75
81802;BME280;71199;52.490;5.448;2023-07-28T09:27:59;100818.72;;;20.02;82.27
81802;BME280;71199;52.490;5.448;2023-07-28T09:30:25;100819.00;;;20.12;81.94
81802;BME280;71199;52.490;5.448;2023-07-28T09:32:55;100818.44;;;20.22;81.27
81802;BME280;71199;52.490;5.448;2023-07-28T09:35:21;100822.47;;;20.26;81.43
81802;BME280;71199;52.490;5.448;2023-07-28T09:37:47;100820.63;;;20.32;81.15
81802;BME280;71199;52.490;5.448;2023-07-28T09:40:20;100831.31;;;20.35;80.63
81802;BME280;71199;52.490;5.448;2023-07-28T09:42:47;100827.69;;;20.46;80.05
81802;BME280;71199;52.490;5.448;2023-07-28T09:45:17;100826.56;;;20.66;79.82
81802;BME280;71199;52.490;5.448;2023-07-28T09:47:44;100830.44;;;20.77;79.15
81802;BME280;71199;52.490;5.448;2023-07-28T09:50:14;100832.41;;;21.00;78.09
81802;BME280;71199;52.490;5.448;2023-07-28T09:52:46;100820.47;;;21.28;76.80
81802;BME280;71199;52.490;5.448;2023-07-28T09:55:12;100820.34;;;21.46;75.54
81802;BME280;71199;52.490;5.448;2023-07-28T09:57:52;100821.56;;;21.50;74.68
81802;BME280;71199;52.490;5.448;2023-07-28T10:00:20;100826.16;;;21.57;74.74
81802;BME280;71199;52.490;5.448;2023-07-28T10:02:46;100825.03;;;21.69;74.36
81802;BME280;71199;52.490;5.448;2023-07-28T10:05:12;100826.81;;;21.87;73.77
81802;BME280;71199;52.490;5.448;2023-07-28T10:07:41;100819.59;;;22.20;73.12
81802;BME280;71199;52.490;5.448;2023-07-28T10:10:10;100819.22;;;22.45;70.73
81802;BME280;71199;52.490;5.448;2023-07-28T10:12:46;100824.06;;;22.50;70.49
81802;BME280;71199;52.490;5.448;2023-07-28T10:15:14;100816.25;;;22.69;69.87
81802;BME280;71199;52.490;5.448;2023-07-28T10:23:17;100821.75;;;23.53;67.86
81802;BME280;71199;52.490;5.448;2023-07-28T10:25:44;100818.81;;;23.65;67.70
81802;BME280;71199;52.490;5.448;2023-07-28T10:30:58;100817.06;;;23.20;68.80
81802;BME280;71199;52.490;5.448;2023-07-28T10:33:33;100816.34;;;22.91;68.19
81802;BME280;71199;52.490;5.448;2023-07-28T10:35:59;100818.47;;;22.67;69.19
81802;BME280;71199;52.490;5.448;2023-07-28T10:41:28;100823.47;;;22.31;70.41
81802;BME280;71199;52.490;5.448;2023-07-28T10:43:55;100811.97;;;22.16;71.47
81802;BME280;71199;52.490;5.448;2023-07-28T10:46:21;100820.25;;;22.10;71.89
81802;BME280;71199;52.490;5.448;2023-07-28T10:48:48;100820.91;;;22.01;71.58
81802;BME280;71199;52.490;5.448;2023-07-28T10:51:22;100823.81;;;22.06;72.83
81802;BME280;71199;52.490;5.448;2023-07-28T10:53:59;100826.56;;;22.18;73.40
81802;BME280;71199;52.490;5.448;2023-07-28T10:56:26;100836.34;;;22.32;71.76
81802;BME280;71199;52.490;5.448;2023-07-28T10:59:02;100830.78;;;22.49;70.24
81802;BME280;71199;52.490;5.448;2023-07-28T11:01:35;100835.63;;;22.70;70.24
81802;BME280;71199;52.490;5.448;2023-07-28T11:06:34;100839.34;;;23.10;68.92
81802;BME280;71199;52.490;5.448;2023-07-28T11:08:59;100831.47;;;23.07;69.61
81802;BME280;71199;52.490;5.448;2023-07-28T11:11:25;100838.66;;;23.20;69.14
81802;BME280;71199;52.490;5.448;2023-07-28T11:13:51;100841.38;;;23.31;68.54
81802;BME280;71199;52.490;5.448;2023-07-28T11:16:16;100837.28;;;23.22;68.11
81802;BME280;71199;52.490;5.448;2023-07-28T11:18:42;100843.44;;;23.19;67.89
81802;BME280;71199;52.490;5.448;2023-07-28T11:21:08;100833.34;;;23.01;68.59
81802;BME280;71199;52.490;5.448;2023-07-28T11:23:33;100840.13;;;22.88;68.66
81802;BME280;71199;52.490;5.448;2023-07-28T11:25:58;100841.22;;;22.87;68.64
81802;BME280;71199;52.490;5.448;2023-07-28T11:28:24;100846.13;;;22.97;68.31
81802;BME280;71199;52.490;5.448;2023-07-28T11:30:50;100847.34;;;23.01;67.99
81802;BME280;71199;52.490;5.448;2023-07-28T11:33:16;100843.75;;;22.89;67.81
81802;BME280;71199;52.490;5.448;2023-07-28T11:35:45;100859.66;;;23.00;68.37
81802;BME280;71199;52.490;5.448;2023-07-28T11:38:11;100857.34;;;23.14;67.40
81802;BME280;71199;52.490;5.448;2023-07-28T11:40:37;100857.84;;;23.28;66.34
81802;BME280;71199;52.490;5.448;2023-07-28T11:43:03;100850.03;;;23.30;66.46
81802;BME280;71199;52.490;5.448;2023-07-28T11:45:29;100855.53;;;23.42;66.05
81802;BME280;71199;52.490;5.448;2023-07-28T11:48:04;100856.59;;;23.58;66.31
81802;BME280;71199;52.490;5.448;2023-07-28T11:50:35;100857.56;;;23.68;65.30
81802;BME280;71199;52.490;5.448;2023-07-28T11:53:02;100846.41;;;23.51;65.17
81802;BME280;71199;52.490;5.448;2023-07-28T11:55:28;100849.81;;;23.53;65.71
81802;BME280;71199;52.490;5.448;2023-07-28T11:57:54;100860.41;;;23.73;65.08
81802;BME280;71199;52.490;5.448;2023-07-28T12:00:30;100852.94;;;24.01;64.54
81802;BME280;71199;52.490;5.448;2023-07-28T12:03:08;100858.56;;;24.28;62.90
81802;BME280;71199;52.490;5.448;2023-07-28T12:05:42;100864.03;;;24.40;62.42
81802;BME280;71199;52.490;5.448;2023-07-28T12:08:38;100863.97;;;24.35;62.63
81802;BME280;71199;52.490;5.448;2023-07-28T12:11:04;100864.03;;;24.40;62.93
81802;BME280;71199;52.490;5.448;2023-07-28T12:13:30;100864.03;;;24.40;62.10
81802;BME280;71199;52.490;5.448;2023-07-28T12:15:55;100860.81;;;24.26;62.04
81802;BME280;71199;52.490;5.448;2023-07-28T12:18:20;100862.91;;;24.14;62.95
81802;BME280;71199;52.490;5.448;2023-07-28T12:20:52;100863.75;;;24.14;62.75
81802;BME280;71199;52.490;5.448;2023-07-28T12:23:19;100866.31;;;24.16;62.57
81802;BME280;71199;52.490;5.448;2023-07-28T12:25:45;100861.16;;;24.08;62.23
81802;BME280;71199;52.490;5.448;2023-07-28T12:28:11;100857.56;;;24.12;62.73
81802;BME280;71199;52.490;5.448;2023-07-28T12:30:37;100865.72;;;24.14;61.97
81802;BME280;71199;52.490;5.448;2023-07-28T12:33:06;100861.78;;;24.15;62.99
81802;BME280;71199;52.490;5.448;2023-07-28T12:35:33;100862.78;;;24.26;61.70
81802;BME280;71199;52.490;5.448;2023-07-28T12:38:06;100870.88;;;24.22;61.39
81802;BME280;71199;52.490;5.448;2023-07-28T12:40:32;100876.00;;;24.03;61.58
81802;BME280;71199;52.490;5.448;2023-07-28T12:42:58;100864.44;;;24.00;62.70
81802;BME280;71199;52.490;5.448;2023-07-28T12:45:24;100867.56;;;23.81;62.50
81802;BME280;71199;52.490;5.448;2023-07-28T12:47:52;100869.38;;;23.70;63.62
81802;BME280;71199;52.490;5.448;2023-07-28T12:50:19;100870.97;;;23.83;63.74
81802;BME280;71199;52.490;5.448;2023-07-28T12:52:44;100869.78;;;24.01;63.17
81802;BME280;71199;52.490;5.448;2023-07-28T12:55:09;100879.31;;;24.00;61.83
81802;BME280;71199;52.490;5.448;2023-07-28T12:57:35;100877.03;;;23.97;62.57
81802;BME280;71199;52.490;5.448;2023-07-28T13:00:00;100875.00;;;23.92;62.15